sensor_id;sensor_type;location;lat;lon;timestamp;P1;durP1;ratioP1;P2;durP2;ratioP2
35225;SDS011;21813;49.686;21.766;2023-12-28T00:02:00;77.72;;;36.33;;
35225;SDS011;21813;49.686;21.766;2023-12-28T00:04:26;68.22;;;34.35;;
35225;SDS011;21813;49.686;21.766;2023-12-28T00:06:54;66.80;;;33.90;;
35225;SDS011;21813;49.686;21.766;2023-12-28T00:09:20;60.63;;;28.85;;
35225;SDS011;21813;49.686;21.766;2023-12-28T00:11:49;63.75;;;30.20;;
35225;SDS011;21813;49.686;21.766;2023-12-28T00:14:18;75.63;;;34.55;;
35225;SDS011;21813;49.686;21.766;2023-12-28T00:16:46;61.15;;;29.45;;
35225;SDS011;21813;49.686;21.766;2023-12-28T00:19:11;70.97;;;31.70;;
35225;SDS011;21813;49.686;21.766;2023-12-28T00:21:41;74.25;;;32.38;;
35225;SDS011;21813;49.686;21.766;2023-12-28T00:24:07;75.03;;;32.83;;
35225;SDS011;21813;49.686;21.766;2023-12-28T00:26:34;72.25;;;34.40;;
35225;SDS011;21813;49.686;21.766;2023-12-28T00:29:00;80.97;;;33.45;;
35225;SDS011;21813;49.686;21.766;2023-12-28T00:31:26;86.53;;;37.70;;
35225;SDS011;21813;49.686;21.766;2023-12-28T00:34:03;75.03;;;34.50;;
35225;SDS011;21813;49.686;21.766;2023-12-28T00:36:30;91.00;;;36.38;;
35225;SDS011;21813;49.686;21.766;2023-12-28T00:38:56;78.75;;;36.08;;
35225;SDS011;21813;49.686;21.766;2023-12-28T00:41:24;75.43;;;34.20;;
35225;SDS011;21813;49.686;21.766;2023-12-28T00:43:49;60.33;;;29.08;;
35225;SDS011;21813;49.686;21.766;2023-12-28T00:46:15;62.75;;;28.67;;
35225;SDS011;21813;49.686;21.766;2023-12-28T00:48:44;59.13;;;25.40;;
35225;SDS011;21813;49.686;21.766;2023-12-28T00:51:28;61.42;;;30.80;;
35225;SDS011;21813;49.686;21.766;2023-12-28T00:53:54;47.63;;;23.20;;
35225;SDS011;21813;49.686;21.766;2023-12-28T00:56:20;41.90;;;20.85;;
35225;SDS011;21813;49.686;21.766;2023-12-28T00:58:46;53.20;;;24.42;;
35225;SDS011;21813;49.686;21.766;2023-12-28T01:01:14;45.17;;;21.92;;
35225;SDS011;21813;49.686;21.766;2023-12-28T01:03:39;49.85;;;24.30;;
35225;SDS011;21813;49.686;21.766;2023-12-28T01:06:05;47.05;;;23.35;;
35225;SDS011;21813;49.686;21.766;2023-12-28T01:08:32;34.17;;;18.50;;
35225;SDS011;21813;49.686;21.766;2023-12-28T01:11:00;28.13;;;13.93;;
35225;SDS011;21813;49.686;21.766;2023-12-28T01:13:27;24.13;;;13.27;;
35225;SDS011;21813;49.686;21.766;2023-12-28T01:15:55;27.27;;;13.98;;
35225;SDS011;21813;49.686;21.766;2023-12-28T01:18:21;28.52;;;14.73;;
35225;SDS011;21813;49.686;21.766;2023-12-28T01:20:47;23.88;;;13.05;;
35225;SDS011;21813;49.686;21.766;2023-12-28T01:23:13;24.38;;;13.88;;
35225;SDS011;21813;49.686;21.766;2023-12-28T01:25:40;22.60;;;14.52;;
35225;SDS011;21813;49.686;21.766;2023-12-28T01:28:05;21.40;;;13.07;;
35225;SDS011;21813;49.686;21.766;2023-12-28T01:30:33;28.73;;;13.60;;
35225;SDS011;21813;49.686;21.766;2023-12-28T01:32:59;20.23;;;12.15;;
35225;SDS011;21813;49.686;21.766;2023-12-28T01:35:26;19.52;;;11.63;;
35225;SDS011;21813;49.686;21.766;2023-12-28T01:37:52;26.35;;;12.20;;
35225;SDS011;21813;49.686;21.766;2023-12-28T01:40:19;24.05;;;13.05;;
35225;SDS011;21813;49.686;21.766;2023-12-28T01:43:02;17.27;;;10.25;;
35225;SDS011;21813;49.686;21.766;2023-12-28T01:45:29;17.05;;;10.10;;
35225;SDS011;21813;49.686;21.766;2023-12-28T01:47:56;17.95;;;11.05;;
35225;SDS011;21813;49.686;21.766;2023-12-28T01:50:25;17.63;;;11.43;;
35225;SDS011;21813;49.686;21.766;2023-12-28T01:52:52;16.88;;;10.35;;
35225;SDS011;21813;49.686;21.766;2023-12-28T01:55:19;19.60;;;10.73;;
35225;SDS011;21813;49.686;21.766;2023-12-28T01:57:46;21.75;;;11.00;;
35225;SDS011;21813;49.686;21.766;2023-12-28T02:02:50;18.27;;;10.18;;
35225;SDS011;21813;49.686;21.766;2023-12-28T02:05:17;17.17;;;10.23;;
35225;SDS011;21813;49.686;21.766;2023-12-28T02:07:45;15.25;;;10.63;;
35225;SDS011;21813;49.686;21.766;2023-12-28T02:10:14;18.63;;;10.73;;
35225;SDS011;21813;49.686;21.766;2023-12-28T02:12:39;12.75;;;8.48;;
35225;SDS011;21813;49.686;21.766;2023-12-28T02:15:07;19.45;;;10.63;;
35225;SDS011;21813;49.686;21.766;2023-12-28T02:20:29;22.30;;;11.45;;
35225;SDS011;21813;49.686;21.766;2023-12-28T02:22:55;17.48;;;9.93;;
35225;SDS011;21813;49.686;21.766;2023-12-28T02:25:22;15.40;;;10.55;;
35225;SDS011;21813;49.686;21.766;2023-12-28T02:27:48;14.88;;;9.30;;
35225;SDS011;21813;49.686;21.766;2023-12-28T02:30:17;20.90;;;9.82;;
35225;SDS011;21813;49.686;21.766;2023-12-28T02:35:55;15.43;;;9.23;;
35225;SDS011;21813;49.686;21.766;2023-12-28T02:38:36;17.88;;;9.35;;
35225;SDS011;21813;49.686;21.766;2023-12-28T02:41:04;17.48;;;9.48;;
35225;SDS011;21813;49.686;21.766;2023-12-28T02:43:31;18.50;;;10.43;;
35225;SDS011;21813;49.686;21.766;2023-12-28T02:46:00;15.57;;;9.13;;
35225;SDS011;21813;49.686;21.766;2023-12-28T02:48:25;16.25;;;9.45;;
35225;SDS011;21813;49.686;21.766;2023-12-28T02:50:53;14.02;;;8.35;;
35225;SDS011;21813;49.686;21.766;2023-12-28T02:53:19;16.95;;;9.23;;
35225;SDS011;21813;49.686;21.766;2023-12-28T02:55:46;14.63;;;8.32;;
35225;SDS011;21813;49.686;21.766;2023-12-28T02:58:12;16.27;;;8.73;;
35225;SDS011;21813;49.686;21.766;2023-12-28T03:00:39;18.30;;;9.23;;
35225;SDS011;21813;49.686;21.766;2023-12-28T03:03:06;17.55;;;9.60;;
35225;SDS011;21813;49.686;21.766;2023-12-28T03:05:34;18.02;;;9.20;;
35225;SDS011;21813;49.686;21.766;2023-12-28T03:07:59;14.10;;;8.95;;
35225;SDS011;21813;49.686;21.766;2023-12-28T03:10:29;17.10;;;9.70;;
35225;SDS011;21813;49.686;21.766;2023-12-28T03:12:54;16.27;;;8.93;;
35225;SDS011;21813;49.686;21.766;2023-12-28T03:15:22;14.70;;;8.60;;
35225;SDS011;21813;49.686;21.766;2023-12-28T03:17:47;13.70;;;7.82;;
35225;SDS011;21813;49.686;21.766;2023-12-28T03:20:14;21.55;;;8.95;;
35225;SDS011;21813;49.686;21.766;2023-12-28T03:22:40;17.30;;;8.88;;
35225;SDS011;21813;49.686;21.766;2023-12-28T03:25:06;19.35;;;8.63;;
35225;SDS011;21813;49.686;21.766;2023-12-28T03:27:32;14.65;;;8.30;;
35225;SDS011;21813;49.686;21.766;2023-12-28T03:29:59;15.38;;;7.55;;
35225;SDS011;21813;49.686;21.766;2023-12-28T03:32:25;15.50;;;8.65;;
35225;SDS011;21813;49.686;21.766;2023-12-28T03:34:51;15.10;;;8.25;;
35225;SDS011;21813;49.686;21.766;2023-12-28T03:37:16;15.15;;;8.60;;
35225;SDS011;21813;49.686;21.766;2023-12-28T03:39:42;20.02;;;9.68;;
35225;SDS011;21813;49.686;21.766;2023-12-28T03:42:09;18.63;;;8.82;;
35225;SDS011;21813;49.686;21.766;2023-12-28T03:44:35;14.65;;;9.02;;
35225;SDS011;21813;49.686;21.766;2023-12-28T03:47:01;14.45;;;9.20;;
35225;SDS011;21813;49.686;21.766;2023-12-28T03:49:26;12.00;;;8.30;;
35225;SDS011;21813;49.686;21.766;2023-12-28T03:51:52;15.73;;;8.85;;
35225;SDS011;21813;49.686;21.766;2023-12-28T03:54:18;15.23;;;9.32;;
35225;SDS011;21813;49.686;21.766;2023-12-28T03:56:48;14.82;;;8.23;;
35225;SDS011;21813;49.686;21.766;2023-12-28T03:59:14;14.02;;;8.70;;
35225;SDS011;21813;49.686;21.766;2023-12-28T04:01:42;13.85;;;8.07;;
35225;SDS011;21813;49.686;21.766;2023-12-28T04:04:08;16.13;;;8.68;;
35225;SDS011;21813;49.686;21.766;2023-12-28T04:06:34;16.45;;;8.05;;
35225;SDS011;21813;49.686;21.766;2023-12-28T04:09:00;14.60;;;7.90;;
35225;SDS011;21813;49.686;21.766;2023-12-28T04:11:26;14.88;;;7.70;;
35225;SDS011;21813;49.686;21.766;2023-12-28T04:13:53;12.30;;;8.32;;
35225;SDS011;21813;49.686;21.766;2023-12-28T04:16:20;14.02;;;8.73;;
35225;SDS011;21813;49.686;21.766;2023-12-28T04:18:46;11.95;;;6.57;;
35225;SDS011;21813;49.686;21.766;2023-12-28T04:21:12;13.25;;;8.27;;
35225;SDS011;21813;49.686;21.766;2023-12-28T04:23:40;16.30;;;8.20;;
35225;SDS011;21813;49.686;21.766;2023-12-28T04:26:07;14.48;;;8.63;;
35225;SDS011;21813;49.686;21.766;2023-12-28T04:28:33;13.68;;;8.65;;
35225;SDS011;21813;49.686;21.766;2023-12-28T04:31:04;13.48;;;8.50;;
35225;SDS011;21813;49.686;21.766;2023-12-28T04:33:31;16.67;;;8.40;;
35225;SDS011;21813;49.686;21.766;2023-12-28T04:36:00;14.73;;;8.15;;
35225;SDS011;21813;49.686;21.766;2023-12-28T04:38:27;15.43;;;9.20;;
35225;SDS011;21813;49.686;21.766;2023-12-28T04:40:53;17.25;;;8.77;;
35225;SDS011;21813;49.686;21.766;2023-12-28T04:43:21;14.38;;;8.65;;
35225;SDS011;21813;49.686;21.766;2023-12-28T04:45:49;16.20;;;9.60;;
35225;SDS011;21813;49.686;21.766;2023-12-28T04:48:15;13.02;;;8.10;;
35225;SDS011;21813;49.686;21.766;2023-12-28T04:50:46;17.40;;;9.45;;
35225;SDS011;21813;49.686;21.766;2023-12-28T04:53:14;15.00;;;8.32;;
35225;SDS011;21813;49.686;21.766;2023-12-28T04:55:40;18.23;;;9.68;;
35225;SDS011;21813;49.686;21.766;2023-12-28T04:58:06;28.83;;;11.93;;
35225;SDS011;21813;49.686;21.766;2023-12-28T05:00:31;28.25;;;14.07;;
35225;SDS011;21813;49.686;21.766;2023-12-28T05:02:58;36.10;;;15.88;;
35225;SDS011;21813;49.686;21.766;2023-12-28T05:05:24;44.33;;;16.60;;
35225;SDS011;21813;49.686;21.766;2023-12-28T05:07:53;35.08;;;14.45;;
35225;SDS011;21813;49.686;21.766;2023-12-28T05:10:18;32.75;;;13.98;;
35225;SDS011;21813;49.686;21.766;2023-12-28T05:12:46;40.45;;;17.20;;
35225;SDS011;21813;49.686;21.766;2023-12-28T05:15:14;37.58;;;15.65;;
35225;SDS011;21813;49.686;21.766;2023-12-28T05:17:42;48.05;;;18.17;;
35225;SDS011;21813;49.686;21.766;2023-12-28T05:20:08;23.63;;;13.07;;
35225;SDS011;21813;49.686;21.766;2023-12-28T05:22:36;19.58;;;10.38;;
35225;SDS011;21813;49.686;21.766;2023-12-28T05:25:02;16.33;;;9.95;;
35225;SDS011;21813;49.686;21.766;2023-12-28T05:27:28;14.73;;;9.15;;
35225;SDS011;21813;49.686;21.766;2023-12-28T05:29:54;16.42;;;8.95;;
35225;SDS011;21813;49.686;21.766;2023-12-28T05:32:21;17.60;;;9.90;;
35225;SDS011;21813;49.686;21.766;2023-12-28T05:34:46;18.08;;;11.38;;
35225;SDS011;21813;49.686;21.766;2023-12-28T05:37:15;13.98;;;9.35;;
35225;SDS011;21813;49.686;21.766;2023-12-28T05:39:40;14.52;;;9.10;;
35225;SDS011;21813;49.686;21.766;2023-12-28T05:42:07;16.40;;;9.15;;
35225;SDS011;21813;49.686;21.766;2023-12-28T05:44:33;13.80;;;7.95;;
35225;SDS011;21813;49.686;21.766;2023-12-28T05:47:00;16.27;;;9.98;;
35225;SDS011;21813;49.686;21.766;2023-12-28T05:49:26;16.00;;;9.23;;
35225;SDS011;21813;49.686;21.766;2023-12-28T05:51:55;18.00;;;10.30;;
35225;SDS011;21813;49.686;21.766;2023-12-28T05:54:20;24.10;;;10.82;;
35225;SDS011;21813;49.686;21.766;2023-12-28T05:56:48;16.27;;;10.00;;
35225;SDS011;21813;49.686;21.766;2023-12-28T05:59:13;16.67;;;10.18;;
35225;SDS011;21813;49.686;21.766;2023-12-28T06:01:42;18.00;;;11.43;;
35225;SDS011;21813;49.686;21.766;2023-12-28T06:04:09;15.88;;;10.15;;
35225;SDS011;21813;49.686;21.766;2023-12-28T06:06:36;15.70;;;10.23;;
35225;SDS011;21813;49.686;21.766;2023-12-28T06:09:02;19.98;;;10.50;;
35225;SDS011;21813;49.686;21.766;2023-12-28T06:11:30;19.50;;;11.20;;
35225;SDS011;21813;49.686;21.766;2023-12-28T06:13:56;18.65;;;10.07;;
35225;SDS011;21813;49.686;21.766;2023-12-28T06:16:30;17.95;;;10.02;;
35225;SDS011;21813;49.686;21.766;2023-12-28T06:18:58;17.77;;;10.70;;
35225;SDS011;21813;49.686;21.766;2023-12-28T06:21:25;19.08;;;10.02;;
35225;SDS011;21813;49.686;21.766;2023-12-28T06:23:51;21.30;;;9.95;;
35225;SDS011;21813;49.686;21.766;2023-12-28T06:26:18;15.75;;;9.65;;
35225;SDS011;21813;49.686;21.766;2023-12-28T06:28:44;14.55;;;9.60;;
35225;SDS011;21813;49.686;21.766;2023-12-28T06:31:09;16.05;;;9.02;;
35225;SDS011;21813;49.686;21.766;2023-12-28T06:33:35;23.08;;;11.52;;
35225;SDS011;21813;49.686;21.766;2023-12-28T06:36:07;18.95;;;10.63;;
35225;SDS011;21813;49.686;21.766;2023-12-28T06:38:34;17.05;;;10.52;;
35225;SDS011;21813;49.686;21.766;2023-12-28T06:41:00;25.23;;;11.65;;
35225;SDS011;21813;49.686;21.766;2023-12-28T06:43:26;18.15;;;10.80;;
35225;SDS011;21813;49.686;21.766;2023-12-28T06:45:51;16.75;;;10.50;;
35225;SDS011;21813;49.686;21.766;2023-12-28T06:48:18;16.08;;;10.65;;
35225;SDS011;21813;49.686;21.766;2023-12-28T06:50:44;18.00;;;10.55;;
35225;SDS011;21813;49.686;21.766;2023-12-28T06:53:10;15.45;;;9.50;;
35225;SDS011;21813;49.686;21.766;2023-12-28T06:55:35;15.65;;;10.30;;
35225;SDS011;21813;49.686;21.766;2023-12-28T06:58:01;15.38;;;9.30;;
35225;SDS011;21813;49.686;21.766;2023-12-28T07:00:27;16.60;;;8.93;;
35225;SDS011;21813;49.686;21.766;2023-12-28T07:03:12;15.55;;;9.45;;
35225;SDS011;21813;49.686;21.766;2023-12-28T07:05:38;16.65;;;8.50;;
35225;SDS011;21813;49.686;21.766;2023-12-28T07:08:06;15.88;;;9.02;;
35225;SDS011;21813;49.686;21.766;2023-12-28T07:10:31;13.95;;;8.55;;
35225;SDS011;21813;49.686;21.766;2023-12-28T07:12:57;13.05;;;8.70;;
35225;SDS011;21813;49.686;21.766;2023-12-28T07:15:23;18.40;;;10.25;;
35225;SDS011;21813;49.686;21.766;2023-12-28T07:17:49;15.00;;;8.73;;
35225;SDS011;21813;49.686;21.766;2023-12-28T07:20:14;14.10;;;8.43;;
35225;SDS011;21813;49.686;21.766;2023-12-28T07:22:40;16.42;;;8.88;;
35225;SDS011;21813;49.686;21.766;2023-12-28T07:25:07;13.27;;;9.32;;
35225;SDS011;21813;49.686;21.766;2023-12-28T07:27:36;12.70;;;9.10;;
35225;SDS011;21813;49.686;21.766;2023-12-28T07:30:02;17.23;;;8.57;;
35225;SDS011;21813;49.686;21.766;2023-12-28T07:32:28;14.52;;;8.93;;
35225;SDS011;21813;49.686;21.766;2023-12-28T07:34:55;21.67;;;9.98;;
35225;SDS011;21813;49.686;21.766;2023-12-28T07:37:20;34.03;;;12.90;;
35225;SDS011;21813;49.686;21.766;2023-12-28T07:39:47;20.85;;;10.43;;
35225;SDS011;21813;49.686;21.766;2023-12-28T07:42:13;23.85;;;11.48;;
35225;SDS011;21813;49.686;21.766;2023-12-28T07:44:39;17.45;;;9.98;;
35225;SDS011;21813;49.686;21.766;2023-12-28T07:47:04;20.02;;;10.10;;
35225;SDS011;21813;49.686;21.766;2023-12-28T07:49:30;23.55;;;10.05;;
35225;SDS011;21813;49.686;21.766;2023-12-28T07:51:56;19.02;;;9.13;;
35225;SDS011;21813;49.686;21.766;2023-12-28T07:54:23;13.20;;;8.15;;
35225;SDS011;21813;49.686;21.766;2023-12-28T07:56:48;12.68;;;8.40;;
35225;SDS011;21813;49.686;21.766;2023-12-28T07:59:14;15.07;;;8.65;;
35225;SDS011;21813;49.686;21.766;2023-12-28T08:01:40;16.75;;;8.73;;
35225;SDS011;21813;49.686;21.766;2023-12-28T08:04:06;15.80;;;7.95;;
35225;SDS011;21813;49.686;21.766;2023-12-28T08:06:32;15.32;;;9.77;;
35225;SDS011;21813;49.686;21.766;2023-12-28T08:08:58;13.63;;;8.77;;
35225;SDS011;21813;49.686;21.766;2023-12-28T08:11:28;13.57;;;8.80;;
35225;SDS011;21813;49.686;21.766;2023-12-28T08:13:54;15.18;;;8.10;;
35225;SDS011;21813;49.686;21.766;2023-12-28T08:16:20;17.10;;;9.15;;
35225;SDS011;21813;49.686;21.766;2023-12-28T08:18:46;15.40;;;8.52;;
35225;SDS011;21813;49.686;21.766;2023-12-28T08:21:12;12.38;;;8.57;;
35225;SDS011;21813;49.686;21.766;2023-12-28T08:23:38;14.15;;;8.40;;
35225;SDS011;21813;49.686;21.766;2023-12-28T08:26:04;14.75;;;9.02;;
35225;SDS011;21813;49.686;21.766;2023-12-28T08:28:30;17.00;;;8.45;;
35225;SDS011;21813;49.686;21.766;2023-12-28T08:30:56;12.43;;;8.38;;
35225;SDS011;21813;49.686;21.766;2023-12-28T08:33:22;15.73;;;8.63;;
35225;SDS011;21813;49.686;21.766;2023-12-28T08:35:48;13.73;;;7.72;;
35225;SDS011;21813;49.686;21.766;2023-12-28T08:38:14;13.98;;;7.88;;
35225;SDS011;21813;49.686;21.766;2023-12-28T08:40:40;13.85;;;7.47;;
35225;SDS011;21813;49.686;21.766;2023-12-28T08:43:05;15.82;;;9.00;;
35225;SDS011;21813;49.686;21.766;2023-12-28T08:45:31;14.05;;;8.52;;
35225;SDS011;21813;49.686;21.766;2023-12-28T08:47:58;14.90;;;7.95;;
35225;SDS011;21813;49.686;21.766;2023-12-28T08:50:23;12.20;;;8.43;;
35225;SDS011;21813;49.686;21.766;2023-12-28T08:52:49;23.35;;;13.35;;
35225;SDS011;21813;49.686;21.766;2023-12-28T08:55:15;14.07;;;7.57;;
35225;SDS011;21813;49.686;21.766;2023-12-28T08:57:43;15.75;;;8.63;;
35225;SDS011;21813;49.686;21.766;2023-12-28T09:00:09;13.43;;;8.98;;
35225;SDS011;21813;49.686;21.766;2023-12-28T09:02:36;10.35;;;7.65;;
35225;SDS011;21813;49.686;21.766;2023-12-28T09:05:02;14.65;;;8.52;;
35225;SDS011;21813;49.686;21.766;2023-12-28T09:07:28;14.70;;;8.55;;
35225;SDS011;21813;49.686;21.766;2023-12-28T09:09:54;12.68;;;7.80;;
35225;SDS011;21813;49.686;21.766;2023-12-28T09:12:20;14.90;;;7.43;;
35225;SDS011;21813;49.686;21.766;2023-12-28T09:14:45;18.10;;;7.47;;
35225;SDS011;21813;49.686;21.766;2023-12-28T09:17:11;11.60;;;7.00;;
35225;SDS011;21813;49.686;21.766;2023-12-28T09:19:37;12.55;;;7.13;;
35225;SDS011;21813;49.686;21.766;2023-12-28T09:22:03;13.88;;;6.85;;
35225;SDS011;21813;49.686;21.766;2023-12-28T09:24:29;15.80;;;7.82;;
35225;SDS011;21813;49.686;21.766;2023-12-28T09:29:45;11.57;;;6.97;;
35225;SDS011;21813;49.686;21.766;2023-12-28T09:32:11;11.40;;;6.68;;
35225;SDS011;21813;49.686;21.766;2023-12-28T09:34:37;12.82;;;7.25;;
35225;SDS011;21813;49.686;21.766;2023-12-28T09:37:03;10.95;;;6.28;;
35225;SDS011;21813;49.686;21.766;2023-12-28T09:39:29;9.80;;;6.40;;
35225;SDS011;21813;49.686;21.766;2023-12-28T09:41:55;11.27;;;6.53;;
35225;SDS011;21813;49.686;21.766;2023-12-28T09:44:30;13.10;;;6.63;;
35225;SDS011;21813;49.686;21.766;2023-12-28T09:47:02;10.85;;;6.88;;
35225;SDS011;21813;49.686;21.766;2023-12-28T09:49:30;11.63;;;6.47;;
35225;SDS011;21813;49.686;21.766;2023-12-28T09:51:56;9.45;;;6.85;;
35225;SDS011;21813;49.686;21.766;2023-12-28T09:54:22;11.60;;;6.82;;
35225;SDS011;21813;49.686;21.766;2023-12-28T09:56:48;9.25;;;6.30;;
35225;SDS011;21813;49.686;21.766;2023-12-28T09:59:14;12.77;;;6.13;;
35225;SDS011;21813;49.686;21.766;2023-12-28T10:01:41;13.27;;;6.65;;
35225;SDS011;21813;49.686;21.766;2023-12-28T10:04:10;17.63;;;6.65;;
35225;SDS011;21813;49.686;21.766;2023-12-28T10:06:36;11.15;;;5.82;;
35225;SDS011;21813;49.686;21.766;2023-12-28T10:09:02;10.93;;;6.00;;
35225;SDS011;21813;49.686;21.766;2023-12-28T10:11:28;9.18;;;6.00;;
35225;SDS011;21813;49.686;21.766;2023-12-28T10:13:54;9.68;;;6.18;;
35225;SDS011;21813;49.686;21.766;2023-12-28T10:16:20;10.38;;;6.28;;
35225;SDS011;21813;49.686;21.766;2023-12-28T10:18:46;8.90;;;5.88;;
35225;SDS011;21813;49.686;21.766;2023-12-28T10:21:12;11.85;;;5.32;;
35225;SDS011;21813;49.686;21.766;2023-12-28T10:23:38;9.40;;;5.43;;
35225;SDS011;21813;49.686;21.766;2023-12-28T10:26:04;10.57;;;5.90;;
35225;SDS011;21813;49.686;21.766;2023-12-28T10:28:34;14.02;;;6.05;;
35225;SDS011;21813;49.686;21.766;2023-12-28T10:31:05;7.88;;;5.40;;
35225;SDS011;21813;49.686;21.766;2023-12-28T10:33:35;11.38;;;5.68;;
35225;SDS011;21813;49.686;21.766;2023-12-28T10:36:04;11.40;;;5.93;;
35225;SDS011;21813;49.686;21.766;2023-12-28T10:38:34;13.52;;;5.70;;
35225;SDS011;21813;49.686;21.766;2023-12-28T10:41:06;11.43;;;6.43;;
35225;SDS011;21813;49.686;21.766;2023-12-28T10:43:46;12.68;;;5.72;;
35225;SDS011;21813;49.686;21.766;2023-12-28T10:46:26;9.77;;;5.63;;
35225;SDS011;21813;49.686;21.766;2023-12-28T10:48:57;8.98;;;5.75;;
35225;SDS011;21813;49.686;21.766;2023-12-28T10:56:46;12.95;;;6.43;;
35225;SDS011;21813;49.686;21.766;2023-12-28T11:02:18;13.85;;;6.63;;
35225;SDS011;21813;49.686;21.766;2023-12-28T11:04:50;13.15;;;7.95;;
35225;SDS011;21813;49.686;21.766;2023-12-28T11:07:18;12.95;;;8.20;;
35225;SDS011;21813;49.686;21.766;2023-12-28T11:09:44;12.43;;;6.60;;
35225;SDS011;21813;49.686;21.766;2023-12-28T11:12:11;10.93;;;5.90;;
35225;SDS011;21813;49.686;21.766;2023-12-28T11:14:40;12.30;;;6.18;;
35225;SDS011;21813;49.686;21.766;2023-12-28T11:17:07;10.05;;;6.22;;
35225;SDS011;21813;49.686;21.766;2023-12-28T11:19:34;10.98;;;6.22;;
35225;SDS011;21813;49.686;21.766;2023-12-28T11:22:02;8.55;;;5.97;;
35225;SDS011;21813;49.686;21.766;2023-12-28T11:24:29;12.05;;;6.93;;
35225;SDS011;21813;49.686;21.766;2023-12-28T11:26:56;9.45;;;5.82;;
35225;SDS011;21813;49.686;21.766;2023-12-28T11:29:23;11.85;;;6.18;;
35225;SDS011;21813;49.686;21.766;2023-12-28T11:31:56;13.32;;;7.25;;
35225;SDS011;21813;49.686;21.766;2023-12-28T11:34:30;8.98;;;5.82;;
35225;SDS011;21813;49.686;21.766;2023-12-28T11:36:57;9.50;;;5.70;;
35225;SDS011;21813;49.686;21.766;2023-12-28T11:39:35;8.68;;;5.40;;
35225;SDS011;21813;49.686;21.766;2023-12-28T11:42:05;10.18;;;5.38;;
35225;SDS011;21813;49.686;21.766;2023-12-28T11:44:36;12.68;;;6.68;;
35225;SDS011;21813;49.686;21.766;2023-12-28T11:47:13;11.82;;;6.55;;
35225;SDS011;21813;49.686;21.766;2023-12-28T11:49:50;15.02;;;6.90;;
35225;SDS011;21813;49.686;21.766;2023-12-28T11:52:26;24.65;;;9.30;;
35225;SDS011;21813;49.686;21.766;2023-12-28T11:54:53;14.48;;;5.63;;
35225;SDS011;21813;49.686;21.766;2023-12-28T11:57:20;15.98;;;6.63;;
35225;SDS011;21813;49.686;21.766;2023-12-28T11:59:46;13.38;;;5.82;;
35225;SDS011;21813;49.686;21.766;2023-12-28T12:02:19;10.48;;;6.13;;
35225;SDS011;21813;49.686;21.766;2023-12-28T12:04:45;12.43;;;6.47;;
35225;SDS011;21813;49.686;21.766;2023-12-28T12:07:11;10.07;;;6.50;;
35225;SDS011;21813;49.686;21.766;2023-12-28T12:09:37;11.68;;;6.25;;
35225;SDS011;21813;49.686;21.766;2023-12-28T12:12:03;12.65;;;6.60;;
35225;SDS011;21813;49.686;21.766;2023-12-28T12:14:30;9.93;;;6.45;;
35225;SDS011;21813;49.686;21.766;2023-12-28T12:16:56;12.52;;;6.20;;
35225;SDS011;21813;49.686;21.766;2023-12-28T12:19:23;8.95;;;4.95;;
35225;SDS011;21813;49.686;21.766;2023-12-28T12:21:52;10.02;;;5.97;;
35225;SDS011;21813;49.686;21.766;2023-12-28T12:24:19;7.57;;;5.53;;
35225;SDS011;21813;49.686;21.766;2023-12-28T12:26:45;12.25;;;6.20;;
35225;SDS011;21813;49.686;21.766;2023-12-28T12:29:11;11.63;;;5.43;;
35225;SDS011;21813;49.686;21.766;2023-12-28T12:31:37;7.60;;;5.38;;
35225;SDS011;21813;49.686;21.766;2023-12-28T12:34:10;12.15;;;5.97;;
35225;SDS011;21813;49.686;21.766;2023-12-28T12:36:36;10.43;;;5.65;;
35225;SDS011;21813;49.686;21.766;2023-12-28T12:39:03;8.38;;;6.10;;
35225;SDS011;21813;49.686;21.766;2023-12-28T12:41:33;7.90;;;5.13;;
35225;SDS011;21813;49.686;21.766;2023-12-28T12:43:59;9.70;;;5.00;;
35225;SDS011;21813;49.686;21.766;2023-12-28T12:46:26;9.07;;;6.03;;
35225;SDS011;21813;49.686;21.766;2023-12-28T12:48:58;8.13;;;5.63;;
35225;SDS011;21813;49.686;21.766;2023-12-28T12:51:25;8.80;;;5.53;;
35225;SDS011;21813;49.686;21.766;2023-12-28T12:53:58;7.55;;;5.65;;
35225;SDS011;21813;49.686;21.766;2023-12-28T12:56:25;8.75;;;5.90;;
35225;SDS011;21813;49.686;21.766;2023-12-28T12:58:51;10.82;;;5.30;;
35225;SDS011;21813;49.686;21.766;2023-12-28T13:01:18;11.23;;;5.88;;
35225;SDS011;21813;49.686;21.766;2023-12-28T13:03:45;9.23;;;5.82;;
35225;SDS011;21813;49.686;21.766;2023-12-28T13:06:11;11.13;;;5.60;;
35225;SDS011;21813;49.686;21.766;2023-12-28T13:08:37;11.95;;;5.55;;
35225;SDS011;21813;49.686;21.766;2023-12-28T13:11:03;8.95;;;5.20;;
35225;SDS011;21813;49.686;21.766;2023-12-28T13:13:32;10.82;;;6.13;;
35225;SDS011;21813;49.686;21.766;2023-12-28T13:15:58;12.60;;;6.05;;
35225;SDS011;21813;49.686;21.766;2023-12-28T13:18:24;12.15;;;6.57;;
35225;SDS011;21813;49.686;21.766;2023-12-28T13:20:50;10.00;;;6.10;;
35225;SDS011;21813;49.686;21.766;2023-12-28T13:23:16;10.95;;;6.78;;
35225;SDS011;21813;49.686;21.766;2023-12-28T13:25:41;10.88;;;6.47;;
35225;SDS011;21813;49.686;21.766;2023-12-28T13:28:08;13.05;;;6.72;;
35225;SDS011;21813;49.686;21.766;2023-12-28T13:30:35;9.75;;;6.03;;
35225;SDS011;21813;49.686;21.766;2023-12-28T13:33:02;10.40;;;6.00;;
35225;SDS011;21813;49.686;21.766;2023-12-28T13:35:29;11.25;;;6.13;;
35225;SDS011;21813;49.686;21.766;2023-12-28T13:37:54;9.57;;;6.38;;
35225;SDS011;21813;49.686;21.766;2023-12-28T13:40:20;10.60;;;6.22;;
35225;SDS011;21813;49.686;21.766;2023-12-28T13:42:46;12.15;;;6.28;;
35225;SDS011;21813;49.686;21.766;2023-12-28T13:45:12;12.55;;;6.40;;
35225;SDS011;21813;49.686;21.766;2023-12-28T13:47:38;11.88;;;6.18;;
35225;SDS011;21813;49.686;21.766;2023-12-28T13:50:04;11.38;;;5.93;;
35225;SDS011;21813;49.686;21.766;2023-12-28T13:52:31;12.65;;;6.15;;
35225;SDS011;21813;49.686;21.766;2023-12-28T13:54:57;11.90;;;5.97;;
35225;SDS011;21813;49.686;21.766;2023-12-28T13:57:26;12.57;;;7.25;;
35225;SDS011;21813;49.686;21.766;2023-12-28T13:59:52;12.23;;;6.72;;
35225;SDS011;21813;49.686;21.766;2023-12-28T14:02:17;13.88;;;5.80;;
35225;SDS011;21813;49.686;21.766;2023-12-28T14:04:43;10.10;;;6.00;;
35225;SDS011;21813;49.686;21.766;2023-12-28T14:07:09;10.68;;;5.82;;
35225;SDS011;21813;49.686;21.766;2023-12-28T14:09:35;10.48;;;6.45;;
35225;SDS011;21813;49.686;21.766;2023-12-28T14:12:01;14.25;;;6.40;;
35225;SDS011;21813;49.686;21.766;2023-12-28T14:14:27;10.05;;;6.20;;
35225;SDS011;21813;49.686;21.766;2023-12-28T14:16:52;11.15;;;6.10;;
35225;SDS011;21813;49.686;21.766;2023-12-28T14:19:18;18.52;;;6.47;;
35225;SDS011;21813;49.686;21.766;2023-12-28T14:21:44;11.77;;;5.93;;
35225;SDS011;21813;49.686;21.766;2023-12-28T14:24:10;12.43;;;6.00;;
35225;SDS011;21813;49.686;21.766;2023-12-28T14:26:40;11.63;;;6.57;;
35225;SDS011;21813;49.686;21.766;2023-12-28T14:31:33;10.90;;;6.53;;
35225;SDS011;21813;49.686;21.766;2023-12-28T14:34:00;12.10;;;6.25;;
35225;SDS011;21813;49.686;21.766;2023-12-28T14:36:27;13.35;;;6.72;;
35225;SDS011;21813;49.686;21.766;2023-12-28T14:38:59;9.43;;;6.70;;
35225;SDS011;21813;49.686;21.766;2023-12-28T14:41:26;10.68;;;7.03;;